CCGS Louis S. St-Laurent — CGBN — position and weather

sailwx.info

Track history (hours):
 
Tides and Currents Weather Stations Pressure Air Temp Water Temp Dewpoint Dewpoint Depression Visibility Wind Speed Wind Dir Waves Ship Positions

Oceanographic research ship CCGS Louis S. St-Laurent (Canada)

Detailed information on ship capabilities available from ARCUS's ALIAS (Arctic Logistics Information and Support) project.

Last reported at 2019-Aug-05 04:35 UTC. Time now 2019-Sep-20 20:14 UTC.
Position N 47°50' W 052°25'.
Warning: this ship's position is 46 days out of date.

Length 119.63 m; beam 24.38 m; draft 9.9 m.

Type: Other ship. MMSI: 316165000.

Date/timePositionNaut miles runAvg speedWind from/ knotsBaromVisibWave heightAir tempDewpointWater temp
2019-Aug-05 04:35N 47°50' W 052°25'317.2
2019-Aug-05 04:26N 47°47' W 052°27'717.1
2019-Aug-05 04:00N 47°41' W 052°32'816.5
2019-Aug-05 03:30N 47°34' W 052°39'0 0.5
2019-Aug-05 02:59N 47°34' W 052°39'917.4
2019-Aug-05 02:29N 47°41' W 052°32'4 0.1
2019-Aug-03 20:43N 47°38' W 052°28'1 5.5
2019-Aug-03 20:27N 47°40' W 052°29'3 6.2
2019-Aug-03 19:55N 47°36' W 052°30'2 0.8
2019-Aug-03 18:05N 47°35' W 052°32'115.3
2019-Aug-03 18:00N 47°37' W 052°32'7 7.3
2019-Aug-03 17:01N 47°34' W 052°42'0 3.1
2019-Aug-03 16:53N 47°34' W 052°42'0 0.3
2019-Aug-03 16:27N 47°34' W 052°42'0 0.4
2019-Aug-03 15:58N 47°34' W 052°42'0 0.1
2019-Aug-03 13:37N 47°34' W 052°42'0 0.0
2019-Aug-03 13:25N 47°34' W 052°42'0 0.0
2019-Aug-03 12:55N 47°34' W 052°42'0 0.0
2019-Aug-03 12:01N 47°34' W 052°42'0 0.0
2019-Aug-03 11:49N 47°34' W 052°42'0 0.0
2019-Aug-03 11:13N 47°34' W 052°42'0 0.0
2019-Aug-03 10:49N 47°34' W 052°42'0 0.0
2019-Aug-03 10:25N 47°34' W 052°42'0 0.0
2019-Aug-03 09:55N 47°34' W 052°42'0 0.0
2019-Aug-03 09:22N 47°34' W 052°42'0 0.0
2019-Aug-03 08:55N 47°34' W 052°42'0 0.0
2019-Aug-03 08:25N 47°34' W 052°42'0 0.0
2019-Aug-03 07:55N 47°34' W 052°42'0 0.0
2019-Aug-03 07:28N 47°34' W 052°42'0 0.0
2019-Aug-03 06:55N 47°34' W 052°42'0 0.0
2019-Aug-03 06:25N 47°34' W 052°42'0 0.0
2019-Aug-03 05:49N 47°34' W 052°42'0 0.0
2019-Aug-03 05:25N 47°34' W 052°42'0 0.0
2019-Aug-03 04:55N 47°34' W 052°42'0 0.0
2019-Aug-03 04:25N 47°34' W 052°42'0 0.0
2019-Aug-03 03:55N 47°34' W 052°42'0 0.0
2019-Aug-03 03:19N 47°34' W 052°42'0 0.0
2019-Aug-03 02:52N 47°34' W 052°42'0 0.0
2019-Aug-03 02:25N 47°34' W 052°42'0 0.0
2019-Aug-03 01:55N 47°34' W 052°42'0 0.0
2019-Aug-03 01:25N 47°34' W 052°42'0 0.0
2019-Aug-03 00:55N 47°34' W 052°42'0 0.0
2019-Aug-03 00:25N 47°34' W 052°42'0 0.0
2019-Aug-02 23:55N 47°34' W 052°42'0 0.0
2019-Aug-02 23:25N 47°34' W 052°42'0 0.0
2019-Aug-02 16:19N 47°34' W 052°42'0 0.0
2019-Aug-02 15:07N 47°34' W 052°42'0 0.0
2019-Aug-02 14:55N 47°34' W 052°42'0 0.0
2019-Aug-02 14:16N 47°34' W 052°42'0 0.0
2019-Aug-02 13:55N 47°34' W 052°42'0 0.0
2019-Aug-02 13:25N 47°34' W 052°42'0 0.0
2019-Aug-02 12:43N 47°34' W 052°42'0 0.0
2019-Aug-02 12:19N 47°34' W 052°42'0 0.0
2019-Aug-02 11:55N 47°34' W 052°42'0 0.0
2019-Aug-02 11:25N 47°34' W 052°42'0 0.0
2019-Aug-02 10:55N 47°34' W 052°42'0 0.0
2019-Aug-02 10:25N 47°34' W 052°42'0 0.0
2019-Aug-02 09:55N 47°34' W 052°42'0 0.0
2019-Aug-02 09:25N 47°34' W 052°42'0 0.0
2019-Aug-02 08:55N 47°34' W 052°42'0 0.0
2019-Aug-02 08:25N 47°34' W 052°42'0 0.0
2019-Aug-02 07:55N 47°34' W 052°42'0 0.0
2019-Aug-02 07:25N 47°34' W 052°42'0 0.0
2019-Aug-02 06:49N 47°34' W 052°42'0 0.0
2019-Aug-02 06:25N 47°34' W 052°42'0 0.0
2019-Aug-02 05:55N 47°34' W 052°42'0 0.0
2019-Aug-02 05:25N 47°34' W 052°42'0 0.0
2019-Aug-02 04:55N 47°34' W 052°42'0 0.0
2019-Aug-02 04:28N 47°34' W 052°42'0 0.0
2019-Aug-02 03:58N 47°34' W 052°42'0 0.0
2019-Aug-02 03:25N 47°34' W 052°42'0 0.0
2019-Aug-02 02:55N 47°34' W 052°42'0 0.0
2019-Aug-02 02:25N 47°34' W 052°42'0 0.0
2019-Aug-02 01:55N 47°34' W 052°42'0 0.0
2019-Aug-02 01:25N 47°34' W 052°42'0 0.0
2019-Aug-02 00:55N 47°34' W 052°42'0 0.0
2019-Aug-02 00:25N 47°34' W 052°42'0 0.0
2019-Aug-01 23:52N 47°34' W 052°42'0 0.0
2019-Aug-01 23:25N 47°34' W 052°42'0 0.0
2019-Aug-01 22:55N 47°34' W 052°42'0 0.0
2019-Aug-01 20:53N 47°34' W 052°42'0 0.4
2019-Aug-01 19:39N 47°34' W 052°42'0 0.0
2019-Aug-01 19:30N 47°34' W 052°42'0 0.0
2019-Aug-01 15:15N 47°34' W 052°42'0 0.0
2019-Aug-01 14:09N 47°34' W 052°42'0 0.0
2019-Aug-01 13:39N 47°34' W 052°42'0 0.0
2019-Aug-01 13:21N 47°34' W 052°42'0 0.0
2019-Aug-01 12:57N 47°34' W 052°42'0 0.0
2019-Aug-01 12:27N 47°34' W 052°42'0 0.0
2019-Aug-01 11:45N 47°34' W 052°42'0 0.0
2019-Aug-01 11:27N 47°34' W 052°42'0 0.0
2019-Aug-01 11:00N 47°34' W 052°42'0 0.0
2019-Aug-01 10:21N 47°34' W 052°42'0 0.0
2019-Aug-01 09:51N 47°34' W 052°42'0 0.0
2019-Aug-01 09:27N 47°34' W 052°42'0 0.0
2019-Aug-01 09:00N 47°34' W 052°42'0 0.0
2019-Aug-01 08:27N 47°34' W 052°42'0 0.0
2019-Aug-01 07:57N 47°34' W 052°42'0 0.0
2019-Aug-01 07:27N 47°34' W 052°42'0 0.0
2019-Aug-01 06:51N 47°34' W 052°42'0 0.0
2019-Aug-01 06:27N 47°34' W 052°42'0 0.0
2019-Aug-01 05:57N 47°34' W 052°42'0 0.0
2019-Aug-01 05:27N 47°34' W 052°42'0 0.0
2019-Aug-01 04:57N 47°34' W 052°42'0 0.0
2019-Aug-01 04:27N 47°34' W 052°42'0 0.0
2019-Aug-01 03:57N 47°34' W 052°42'0 0.0
2019-Aug-01 03:27N 47°34' W 052°42'0 0.0
2019-Aug-01 02:54N 47°34' W 052°42'0 0.0
2019-Aug-01 01:57N 47°34' W 052°42'0 0.0
2019-Aug-01 01:27N 47°34' W 052°42'0 0.0
2019-Aug-01 00:57N 47°34' W 052°42'0 0.0
2019-Aug-01 00:27N 47°34' W 052°42'0 0.0
2019-Jul-31 23:57N 47°34' W 052°42'0 0.0
2019-Jul-31 23:27N 47°34' W 052°42'0 0.0
2019-Jul-31 22:57N 47°34' W 052°42'0 0.0
2019-Jul-31 21:57N 47°34' W 052°42'0 0.0
2019-Jul-31 21:15N 47°34' W 052°42'0 0.0
2019-Jul-31 20:27N 47°34' W 052°42'0 0.0
2019-Jul-31 19:39N 47°34' W 052°42'0 0.0
2019-Jul-31 16:27N 47°34' W 052°42'0 0.0
2019-Jul-31 15:51N 47°34' W 052°42'0 0.0
2019-Jul-31 15:27N 47°34' W 052°42'0 0.0
2019-Jul-31 14:57N 47°34' W 052°42'0 0.0
2019-Jul-31 14:27N 47°34' W 052°42'0 0.0
2019-Jul-31 13:57N 47°34' W 052°42'0 0.0
2019-Jul-31 13:21N 47°34' W 052°42'0 0.0
2019-Jul-31 12:57N 47°34' W 052°42'0 0.0
2019-Jul-31 12:27N 47°34' W 052°42'0 0.0
2019-Jul-31 11:57N 47°34' W 052°42'0 0.0
2019-Jul-31 11:27N 47°34' W 052°42'0 0.0
2019-Jul-31 10:57N 47°34' W 052°42'0 0.0
2019-Jul-31 10:30N 47°34' W 052°42'0 0.7
2019-Jul-31 09:54N 47°33' W 052°42'0 0.0
2019-Jul-31 09:30N 47°33' W 052°42'0 0.0
2019-Jul-31 09:00N 47°33' W 052°42'0 0.0
2019-Jul-31 08:24N 47°33' W 052°42'0 0.0
2019-Jul-31 08:00N 47°33' W 052°42'0 0.0
2019-Jul-31 07:30N 47°33' W 052°42'0 0.0
2019-Jul-31 06:57N 47°33' W 052°42'0 0.0
2019-Jul-31 06:30N 47°33' W 052°42'0 0.0
2019-Jul-31 06:00N 47°33' W 052°42'0 0.0
2019-Jul-31 05:30N 47°33' W 052°42'0 0.0
2019-Jul-31 05:00N 47°33' W 052°42'0 0.0
2019-Jul-31 04:27N 47°33' W 052°42'0 0.0
2019-Jul-31 04:00N 47°33' W 052°42'0 0.0
2019-Jul-31 03:30N 47°33' W 052°42'0 0.0
2019-Jul-31 03:00N 47°33' W 052°42'0 0.0
2019-Jul-31 01:57N 47°33' W 052°42'0 0.0
2019-Jul-31 01:30N 47°33' W 052°42'0 0.0
2019-Jul-31 01:00N 47°33' W 052°42'0 0.0
2019-Jul-31 00:30N 47°33' W 052°42'0 0.0
2019-Jul-31 00:00N 47°33' W 052°42'0 0.0
2019-Jul-30 23:30N 47°33' W 052°42'0 0.0
2019-Jul-30 23:00N 47°33' W 052°42'0 0.0
2019-Jul-30 22:21N 47°33' W 052°42'0 0.0
2019-Jul-30 21:54N 47°33' W 052°42'0 0.0
2019-Jul-30 21:30N 47°33' W 052°42'0 0.0
2019-Jul-30 21:00N 47°33' W 052°42'0 0.0
2019-Jul-30 18:24N 47°33' W 052°42'0 0.0
2019-Jul-30 17:18N 47°33' W 052°42'0 0.0
2019-Jul-30 16:48N 47°33' W 052°42'0 0.0
2019-Jul-30 16:18N 47°33' W 052°42'0 0.0
2019-Jul-30 16:00N 47°33' W 052°42'0 0.0
2019-Jul-30 15:30N 47°33' W 052°42'0 0.0
2019-Jul-30 14:00N 47°33' W 052°42'0 0.0
2019-Jul-30 13:30N 47°33' W 052°42'0 0.0
2019-Jul-30 12:57N 47°33' W 052°42'0 0.0
2019-Jul-30 12:30N 47°33' W 052°42'0 0.0
2019-Jul-30 12:00N 47°33' W 052°42'0 0.0
2019-Jul-30 11:24N 47°33' W 052°42'0 0.0
2019-Jul-30 10:54N 47°33' W 052°42'0 0.0
2019-Jul-30 10:30N 47°33' W 052°42'0 0.0
2019-Jul-30 10:00N 47°33' W 052°42'0 0.0
2019-Jul-30 09:30N 47°33' W 052°42'0 0.0
2019-Jul-30 08:48N 47°33' W 052°42'0 0.0
2019-Jul-30 08:30N 47°33' W 052°42'0 0.0
2019-Jul-30 07:54N 47°33' W 052°42'0 0.0
2019-Jul-30 07:30N 47°33' W 052°42'0 0.0
2019-Jul-30 07:00N 47°33' W 052°42'0 0.0
2019-Jul-30 06:30N 47°33' W 052°42'0 0.0
2019-Jul-30 06:00N 47°33' W 052°42'0 0.0
2019-Jul-30 05:30N 47°33' W 052°42'0 0.0
2019-Jul-30 05:00N 47°33' W 052°42'0 0.0
2019-Jul-30 04:30N 47°33' W 052°42'0 0.0
2019-Jul-30 04:00N 47°33' W 052°42'0 0.0
2019-Jul-30 03:30N 47°33' W 052°42'0 0.0
2019-Jul-30 03:00N 47°33' W 052°42'0 0.0
2019-Jul-30 02:30N 47°33' W 052°42'0 0.0
2019-Jul-30 02:00N 47°33' W 052°42'0 0.0
2019-Jul-30 01:30N 47°33' W 052°42'0 0.0
2019-Jul-30 01:00N 47°33' W 052°42'0 0.0
2019-Jul-30 00:30N 47°33' W 052°42'0 0.0
2019-Jul-30 00:00N 47°33' W 052°42'0 0.0
2019-Jul-29 23:30N 47°33' W 052°42'0 0.0
2019-Jul-29 22:54N 47°33' W 052°42'0 0.0
2019-Jul-29 22:30N 47°33' W 052°42'0 0.0
2019-Jul-29 22:00N 47°33' W 052°42'0 0.0
2019-Jul-29 21:30N 47°33' W 052°42'0 0.0
2019-Jul-29 21:00N 47°33' W 052°42'0 0.0
2019-Jul-29 19:54N 47°33' W 052°42'0 0.0
2019-Jul-29 16:42N 47°33' W 052°42'0 0.0
2019-Jul-29 15:15N 47°33' W 052°42'0 0.0
2019-Jul-29 14:57N 47°33' W 052°42'0 0.0
2019-Jul-29 14:30N 47°33' W 052°42'0 0.0
2019-Jul-29 13:51N 47°33' W 052°42'0 0.0
2019-Jul-29 13:24N 47°33' W 052°42'0 0.0
2019-Jul-29 12:57N 47°33' W 052°42'0 0.0
2019-Jul-29 12:30N 47°33' W 052°42'0 0.0
2019-Jul-29 12:00N 47°33' W 052°42'0 0.0
2019-Jul-29 11:27N 47°33' W 052°42'0 0.0
2019-Jul-29 10:57N 47°33' W 052°42'0 0.0
2019-Jul-29 10:30N 47°33' W 052°42'0 0.0
2019-Jul-29 10:00N 47°33' W 052°42'0 0.0
2019-Jul-29 09:30N 47°33' W 052°42'0 0.0
2019-Jul-29 09:00N 47°33' W 052°42'0 0.0
2019-Jul-29 08:30N 47°33' W 052°42'0 0.0
2019-Jul-29 08:00N 47°33' W 052°42'0 0.0
2019-Jul-29 07:30N 47°33' W 052°42'0 0.0
2019-Jul-29 06:54N 47°33' W 052°42'0 0.0
2019-Jul-29 06:30N 47°33' W 052°42'0 0.0
2019-Jul-29 05:54N 47°33' W 052°42'0 0.0
2019-Jul-29 05:30N 47°33' W 052°42'0 0.0
2019-Jul-29 05:00N 47°33' W 052°42'0 0.0
2019-Jul-29 04:24N 47°33' W 052°42'0 0.0
2019-Jul-29 03:54N 47°33' W 052°42'0 0.0
2019-Jul-29 03:30N 47°33' W 052°42'0 0.0
2019-Jul-29 03:00N 47°33' W 052°42'0 0.0
2019-Jul-29 02:00N 47°33' W 052°42'0 0.0
2019-Jul-29 01:30N 47°33' W 052°42'0 0.0
2019-Jul-29 01:00N 47°33' W 052°42'0 0.0
2019-Jul-29 00:30N 47°33' W 052°42'0 0.0
2019-Jul-29 00:00N 47°33' W 052°42'0 0.0
2019-Jul-28 23:24N 47°33' W 052°42'0 0.0
2019-Jul-28 23:00N 47°33' W 052°42'0 0.0
2019-Jul-28 22:30N 47°33' W 052°42'0 0.0
2019-Jul-28 21:54N 47°33' W 052°42'0 0.0
2019-Jul-28 21:30N 47°33' W 052°42'0 0.0
2019-Jul-28 21:00N 47°33' W 052°42'0 0.0
2019-Jul-28 20:30N 47°33' W 052°42'0 0.0
2019-Jul-28 20:00N 47°33' W 052°42'0 0.0
2019-Jul-28 18:42N 47°33' W 052°42'0 0.0
2019-Jul-28 18:30N 47°33' W 052°42'0 0.0
2019-Jul-28 18:00N 47°33' W 052°42'0 0.0
2019-Jul-28 17:24N 47°33' W 052°42'0 0.0
2019-Jul-28 17:00N 47°33' W 052°42'0 0.0
2019-Jul-28 16:30N 47°33' W 052°42'0 0.0
2019-Jul-28 16:00N 47°33' W 052°42'0 0.0
2019-Jul-28 15:30N 47°33' W 052°42'0 0.0
2019-Jul-28 15:00N 47°33' W 052°42'0 0.0
2019-Jul-28 14:30N 47°33' W 052°42'0 0.0
2019-Jul-28 14:00N 47°33' W 052°42'0 0.0
2019-Jul-28 13:30N 47°33' W 052°42'0 0.0
2019-Jul-28 13:00N 47°33' W 052°42'0 0.0
2019-Jul-28 12:30N 47°33' W 052°42'0 0.0
2019-Jul-28 11:54N 47°33' W 052°42'0 0.0
2019-Jul-28 11:30N 47°33' W 052°42'0 0.0
2019-Jul-28 11:00N 47°33' W 052°42'0 0.0
2019-Jul-28 10:30N 47°33' W 052°42'0 0.0
2019-Jul-28 10:00N 47°33' W 052°42'0 0.0
2019-Jul-28 09:27N 47°33' W 052°42'0 0.0
2019-Jul-28 08:54N 47°33' W 052°42'0 0.0
2019-Jul-28 08:21N 47°33' W 052°42'0 0.0
2019-Jul-28 07:54N 47°33' W 052°42'0 0.0
2019-Jul-28 07:30N 47°33' W 052°42'0 0.0
2019-Jul-28 07:00N 47°33' W 052°42'0 0.0
2019-Jul-28 06:30N 47°33' W 052°42'0 0.0
2019-Jul-28 06:00N 47°33' W 052°42'0 0.0
2019-Jul-28 05:30N 47°33' W 052°42'0 0.0
2019-Jul-28 05:00N 47°33' W 052°42'0 0.0
2019-Jul-28 04:30N 47°33' W 052°42'0 0.0
2019-Jul-28 03:57N 47°33' W 052°42'0 0.0
2019-Jul-28 03:27N 47°33' W 052°42'0 0.0
2019-Jul-28 02:51N 47°33' W 052°42'0 0.0
2019-Jul-28 01:54N 47°33' W 052°42'0 0.0
2019-Jul-28 01:30N 47°33' W 052°42'0 0.0
2019-Jul-28 01:00N 47°33' W 052°42'0 0.0
2019-Jul-28 00:30N 47°33' W 052°42'0 0.0
2019-Jul-27 23:57N 47°33' W 052°42'0 0.0
2019-Jul-27 23:27N 47°33' W 052°42'0 0.0
2019-Jul-27 23:00N 47°33' W 052°42'0 0.0
2019-Jul-27 22:18N 47°33' W 052°42'0 0.0
2019-Jul-27 22:00N 47°33' W 052°42'0 0.0
2019-Jul-27 21:24N 47°33' W 052°42'0 0.0
2019-Jul-27 20:42N 47°33' W 052°42'0 0.0
2019-Jul-27 20:30N 47°33' W 052°42'0 0.0
2019-Jul-27 20:00N 47°33' W 052°42'0 0.0
2019-Jul-27 19:30N 47°33' W 052°42'0 0.0
2019-Jul-27 19:00N 47°33' W 052°42'0 0.0
2019-Jul-27 18:30N 47°33' W 052°42'0 0.0
2019-Jul-27 18:00N 47°33' W 052°42'0 0.0
2019-Jul-27 17:30N 47°33' W 052°42'0 0.0
2019-Jul-27 17:00N 47°33' W 052°42'0 0.0
2019-Jul-27 16:30N 47°33' W 052°42'0 0.0
2019-Jul-27 16:00N 47°33' W 052°42'0 0.0
2019-Jul-27 15:30N 47°33' W 052°42'0 0.0
2019-Jul-27 15:00N 47°33' W 052°42'0 0.0
2019-Jul-27 14:30N 47°33' W 052°42'0 0.0
2019-Jul-27 13:51N 47°33' W 052°42'0 0.0
2019-Jul-27 13:30N 47°33' W 052°42'0 0.0
2019-Jul-27 13:00N 47°33' W 052°42'0 0.0
2019-Jul-27 12:30N 47°33' W 052°42'0 0.0
2019-Jul-27 12:00N 47°33' W 052°42'0 0.0
2019-Jul-27 11:18N 47°33' W 052°42'0 0.0
2019-Jul-27 11:00N 47°33' W 052°42'0 0.0
2019-Jul-27 10:21N 47°33' W 052°42'0 0.0
2019-Jul-27 10:00N 47°33' W 052°42'0 0.0
2019-Jul-27 09:24N 47°33' W 052°42'0 0.0
2019-Jul-27 09:00N 47°33' W 052°42'0 0.0
2019-Jul-27 08:30N 47°33' W 052°42'0 0.0
2019-Jul-27 08:00N 47°33' W 052°42'0 0.0
2019-Jul-27 07:30N 47°33' W 052°42'0 0.0
2019-Jul-27 07:00N 47°33' W 052°42'0 0.0
2019-Jul-27 06:30N 47°33' W 052°42'0 0.0
2019-Jul-27 06:00N 47°33' W 052°42'0 0.0
2019-Jul-27 05:30N 47°33' W 052°42'0 0.0
2019-Jul-27 04:57N 47°33' W 052°42'0 0.0
2019-Jul-27 04:30N 47°33' W 052°42'0 0.0
2019-Jul-27 04:00N 47°33' W 052°42'0 0.0
2019-Jul-27 03:30N 47°33' W 052°42'0 0.0
2019-Jul-27 02:57N 47°33' W 052°42'0 0.0
2019-Jul-27 01:54N 47°33' W 052°42'0 0.0
2019-Jul-27 01:30N 47°33' W 052°42'0 0.0
2019-Jul-27 01:00N 47°33' W 052°42'0 0.0
2019-Jul-27 00:30N 47°33' W 052°42'0 0.0
2019-Jul-27 00:00N 47°33' W 052°42'0 0.0
2019-Jul-26 23:27N 47°33' W 052°42'0 0.0
2019-Jul-26 22:54N 47°33' W 052°42'0 0.0
2019-Jul-26 22:24N 47°33' W 052°42'0 0.0
2019-Jul-26 22:00N 47°33' W 052°42'0 0.0
2019-Jul-26 21:30N 47°33' W 052°42'0 0.0
2019-Jul-26 21:00N 47°33' W 052°42'0 0.0
2019-Jul-26 20:27N 47°33' W 052°42'0 0.0
2019-Jul-26 19:57N 47°33' W 052°42'0 0.0
2019-Jul-26 19:30N 47°33' W 052°42'0 0.0
2019-Jul-26 18:45N 47°33' W 052°42'0 0.0
2019-Jul-26 18:21N 47°33' W 052°42'0 0.0
2019-Jul-26 17:51N 47°33' W 052°42'0 0.0
2019-Jul-26 17:30N 47°33' W 052°42'0 0.0
2019-Jul-26 16:54N 47°33' W 052°42'0 0.0
2019-Jul-26 16:30N 47°33' W 052°42'0 0.0
2019-Jul-26 16:00N 47°33' W 052°42'0 0.0
2019-Jul-26 15:27N 47°33' W 052°42'0 0.0
2019-Jul-26 14:54N 47°33' W 052°42'0 0.0
2019-Jul-26 14:27N 47°33' W 052°42'0 0.0
2019-Jul-26 14:00N 47°33' W 052°42'0 0.0
2019-Jul-26 13:27N 47°33' W 052°42'0 0.0
2019-Jul-26 13:00N 47°33' W 052°42'0 0.0
2019-Jul-26 12:30N 47°33' W 052°42'0 0.0
2019-Jul-26 12:00N 47°33' W 052°42'0 0.0
2019-Jul-26 11:27N 47°33' W 052°42'0 0.0
2019-Jul-26 11:00N 47°33' W 052°42'0 0.0
2019-Jul-26 10:30N 47°33' W 052°42'0 0.0
2019-Jul-26 10:00N 47°33' W 052°42'0 0.0
2019-Jul-26 09:24N 47°33' W 052°42'0 0.0
2019-Jul-26 08:57N 47°33' W 052°42'0 0.0
2019-Jul-26 08:30N 47°33' W 052°42'0 0.0
2019-Jul-26 08:00N 47°33' W 052°42'0 0.0
2019-Jul-26 07:30N 47°33' W 052°42'0 0.0
2019-Jul-26 06:57N 47°33' W 052°42'0 0.0
2019-Jul-26 06:30N 47°33' W 052°42'0 0.0
2019-Jul-26 06:00N 47°33' W 052°42'0 0.0
2019-Jul-26 05:30N 47°33' W 052°42'0 0.0
2019-Jul-26 05:00N 47°33' W 052°42'  
Track history (hours):
 
Tides and Currents Weather Stations Pressure Air Temp Water Temp Dewpoint Dewpoint Depression Visibility Wind Speed Wind Dir Waves Ship Positions

Oceanographic research ship CCGS Louis S. St-Laurent (Canada)

Detailed information on ship capabilities available from ARCUS's ALIAS (Arctic Logistics Information and Support) project.

Last reported at 2019-Aug-05 04:35 UTC. Time now 2019-Sep-20 20:14 UTC.
Position N 47°50' W 052°25'.
Warning: this ship's position is 46 days out of date.

Length 119.63 m; beam 24.38 m; draft 9.9 m.

Type: Other ship. MMSI: 316165000.

Date/timePositionNaut miles runAvg speedWind from/ knotsBaromVisibWave heightAir tempDewpointWater temp
2019-Aug-05 04:35N 47°50' W 052°25'317.2
2019-Aug-05 04:26N 47°47' W 052°27'717.1
2019-Aug-05 04:00N 47°41' W 052°32'816.5
2019-Aug-05 03:30N 47°34' W 052°39'0 0.5
2019-Aug-05 02:59N 47°34' W 052°39'917.4
2019-Aug-05 02:29N 47°41' W 052°32'4 0.1
2019-Aug-03 20:43N 47°38' W 052°28'1 5.5
2019-Aug-03 20:27N 47°40' W 052°29'3 6.2
2019-Aug-03 19:55N 47°36' W 052°30'2 0.8
2019-Aug-03 18:05N 47°35' W 052°32'115.3
2019-Aug-03 18:00N 47°37' W 052°32'7 7.3
2019-Aug-03 17:01N 47°34' W 052°42'0 3.1
2019-Aug-03 16:53N 47°34' W 052°42'0 0.3
2019-Aug-03 16:27N 47°34' W 052°42'0 0.4
2019-Aug-03 15:58N 47°34' W 052°42'0 0.1
2019-Aug-03 13:37N 47°34' W 052°42'0 0.0
2019-Aug-03 13:25N 47°34' W 052°42'0 0.0
2019-Aug-03 12:55N 47°34' W 052°42'0 0.0
2019-Aug-03 12:01N 47°34' W 052°42'0 0.0
2019-Aug-03 11:49N 47°34' W 052°42'0 0.0
2019-Aug-03 11:13N 47°34' W 052°42'0 0.0
2019-Aug-03 10:49N 47°34' W 052°42'0 0.0
2019-Aug-03 10:25N 47°34' W 052°42'0 0.0
2019-Aug-03 09:55N 47°34' W 052°42'0 0.0
2019-Aug-03 09:22N 47°34' W 052°42'0 0.0
2019-Aug-03 08:55N 47°34' W 052°42'0 0.0
2019-Aug-03 08:25N 47°34' W 052°42'0 0.0
2019-Aug-03 07:55N 47°34' W 052°42'0 0.0
2019-Aug-03 07:28N 47°34' W 052°42'0 0.0
2019-Aug-03 06:55N 47°34' W 052°42'0 0.0
2019-Aug-03 06:25N 47°34' W 052°42'0 0.0
2019-Aug-03 05:49N 47°34' W 052°42'0 0.0
2019-Aug-03 05:25N 47°34' W 052°42'0 0.0
2019-Aug-03 04:55N 47°34' W 052°42'0 0.0
2019-Aug-03 04:25N 47°34' W 052°42'0 0.0
2019-Aug-03 03:55N 47°34' W 052°42'0 0.0
2019-Aug-03 03:19N 47°34' W 052°42'0 0.0
2019-Aug-03 02:52N 47°34' W 052°42'0 0.0
2019-Aug-03 02:25N 47°34' W 052°42'0 0.0
2019-Aug-03 01:55N 47°34' W 052°42'0 0.0
2019-Aug-03 01:25N 47°34' W 052°42'0 0.0
2019-Aug-03 00:55N 47°34' W 052°42'0 0.0
2019-Aug-03 00:25N 47°34' W 052°42'0 0.0
2019-Aug-02 23:55N 47°34' W 052°42'0 0.0
2019-Aug-02 23:25N 47°34' W 052°42'0 0.0
2019-Aug-02 16:19N 47°34' W 052°42'0 0.0
2019-Aug-02 15:07N 47°34' W 052°42'0 0.0
2019-Aug-02 14:55N 47°34' W 052°42'0 0.0
2019-Aug-02 14:16N 47°34' W 052°42'0 0.0
2019-Aug-02 13:55N 47°34' W 052°42'0 0.0
2019-Aug-02 13:25N 47°34' W 052°42'0 0.0
2019-Aug-02 12:43N 47°34' W 052°42'0 0.0
2019-Aug-02 12:19N 47°34' W 052°42'0 0.0
2019-Aug-02 11:55N 47°34' W 052°42'0 0.0
2019-Aug-02 11:25N 47°34' W 052°42'0 0.0
2019-Aug-02 10:55N 47°34' W 052°42'0 0.0
2019-Aug-02 10:25N 47°34' W 052°42'0 0.0
2019-Aug-02 09:55N 47°34' W 052°42'0 0.0
2019-Aug-02 09:25N 47°34' W 052°42'0 0.0
2019-Aug-02 08:55N 47°34' W 052°42'0 0.0
2019-Aug-02 08:25N 47°34' W 052°42'0 0.0
2019-Aug-02 07:55N 47°34' W 052°42'0 0.0
2019-Aug-02 07:25N 47°34' W 052°42'0 0.0
2019-Aug-02 06:49N 47°34' W 052°42'0 0.0
2019-Aug-02 06:25N 47°34' W 052°42'0 0.0
2019-Aug-02 05:55N 47°34' W 052°42'0 0.0
2019-Aug-02 05:25N 47°34' W 052°42'0 0.0
2019-Aug-02 04:55N 47°34' W 052°42'0 0.0
2019-Aug-02 04:28N 47°34' W 052°42'0 0.0
2019-Aug-02 03:58N 47°34' W 052°42'0 0.0
2019-Aug-02 03:25N 47°34' W 052°42'0 0.0
2019-Aug-02 02:55N 47°34' W 052°42'0 0.0
2019-Aug-02 02:25N 47°34' W 052°42'0 0.0
2019-Aug-02 01:55N 47°34' W 052°42'0 0.0
2019-Aug-02 01:25N 47°34' W 052°42'0 0.0
2019-Aug-02 00:55N 47°34' W 052°42'0 0.0
2019-Aug-02 00:25N 47°34' W 052°42'0 0.0
2019-Aug-01 23:52N 47°34' W 052°42'0 0.0
2019-Aug-01 23:25N 47°34' W 052°42'0 0.0
2019-Aug-01 22:55N 47°34' W 052°42'0 0.0
2019-Aug-01 20:53N 47°34' W 052°42'0 0.4
2019-Aug-01 19:39N 47°34' W 052°42'0 0.0
2019-Aug-01 19:30N 47°34' W 052°42'0 0.0
2019-Aug-01 15:15N 47°34' W 052°42'0 0.0
2019-Aug-01 14:09N 47°34' W 052°42'0 0.0
2019-Aug-01 13:39N 47°34' W 052°42'0 0.0
2019-Aug-01 13:21N 47°34' W 052°42'0 0.0
2019-Aug-01 12:57N 47°34' W 052°42'0 0.0
2019-Aug-01 12:27N 47°34' W 052°42'0 0.0
2019-Aug-01 11:45N 47°34' W 052°42'0 0.0
2019-Aug-01 11:27N 47°34' W 052°42'0 0.0
2019-Aug-01 11:00N 47°34' W 052°42'0 0.0
2019-Aug-01 10:21N 47°34' W 052°42'0 0.0
2019-Aug-01 09:51N 47°34' W 052°42'0 0.0
2019-Aug-01 09:27N 47°34' W 052°42'0 0.0
2019-Aug-01 09:00N 47°34' W 052°42'0 0.0
2019-Aug-01 08:27N 47°34' W 052°42'0 0.0
2019-Aug-01 07:57N 47°34' W 052°42'0 0.0
2019-Aug-01 07:27N 47°34' W 052°42'0 0.0
2019-Aug-01 06:51N 47°34' W 052°42'0 0.0
2019-Aug-01 06:27N 47°34' W 052°42'0 0.0
2019-Aug-01 05:57N 47°34' W 052°42'0 0.0
2019-Aug-01 05:27N 47°34' W 052°42'0 0.0
2019-Aug-01 04:57N 47°34' W 052°42'0 0.0
2019-Aug-01 04:27N 47°34' W 052°42'0 0.0
2019-Aug-01 03:57N 47°34' W 052°42'0 0.0
2019-Aug-01 03:27N 47°34' W 052°42'0 0.0
2019-Aug-01 02:54N 47°34' W 052°42'0 0.0
2019-Aug-01 01:57N 47°34' W 052°42'0 0.0
2019-Aug-01 01:27N 47°34' W 052°42'0 0.0
2019-Aug-01 00:57N 47°34' W 052°42'0 0.0
2019-Aug-01 00:27N 47°34' W 052°42'0 0.0
2019-Jul-31 23:57N 47°34' W 052°42'0 0.0
2019-Jul-31 23:27N 47°34' W 052°42'0 0.0
2019-Jul-31 22:57N 47°34' W 052°42'0 0.0
2019-Jul-31 21:57N 47°34' W 052°42'0 0.0
2019-Jul-31 21:15N 47°34' W 052°42'0 0.0
2019-Jul-31 20:27N 47°34' W 052°42'0 0.0
2019-Jul-31 19:39N 47°34' W 052°42'0 0.0
2019-Jul-31 16:27N 47°34' W 052°42'0 0.0
2019-Jul-31 15:51N 47°34' W 052°42'0 0.0
2019-Jul-31 15:27N 47°34' W 052°42'0 0.0
2019-Jul-31 14:57N 47°34' W 052°42'0 0.0
2019-Jul-31 14:27N 47°34' W 052°42'0 0.0
2019-Jul-31 13:57N 47°34' W 052°42'0 0.0
2019-Jul-31 13:21N 47°34' W 052°42'0 0.0
2019-Jul-31 12:57N 47°34' W 052°42'0 0.0
2019-Jul-31 12:27N 47°34' W 052°42'0 0.0
2019-Jul-31 11:57N 47°34' W 052°42'0 0.0
2019-Jul-31 11:27N 47°34' W 052°42'0 0.0
2019-Jul-31 10:57N 47°34' W 052°42'0 0.0
2019-Jul-31 10:30N 47°34' W 052°42'0 0.7
2019-Jul-31 09:54N 47°33' W 052°42'0 0.0
2019-Jul-31 09:30N 47°33' W 052°42'0 0.0
2019-Jul-31 09:00N 47°33' W 052°42'0 0.0
2019-Jul-31 08:24N 47°33' W 052°42'0 0.0
2019-Jul-31 08:00N 47°33' W 052°42'0 0.0
2019-Jul-31 07:30N 47°33' W 052°42'0 0.0
2019-Jul-31 06:57N 47°33' W 052°42'0 0.0
2019-Jul-31 06:30N 47°33' W 052°42'0 0.0
2019-Jul-31 06:00N 47°33' W 052°42'0 0.0
2019-Jul-31 05:30N 47°33' W 052°42'0 0.0
2019-Jul-31 05:00N 47°33' W 052°42'0 0.0
2019-Jul-31 04:27N 47°33' W 052°42'0 0.0
2019-Jul-31 04:00N 47°33' W 052°42'0 0.0
2019-Jul-31 03:30N 47°33' W 052°42'0 0.0
2019-Jul-31 03:00N 47°33' W 052°42'0 0.0
2019-Jul-31 01:57N 47°33' W 052°42'0 0.0
2019-Jul-31 01:30N 47°33' W 052°42'0 0.0
2019-Jul-31 01:00N 47°33' W 052°42'0 0.0
2019-Jul-31 00:30N 47°33' W 052°42'0 0.0
2019-Jul-31 00:00N 47°33' W 052°42'0 0.0
2019-Jul-30 23:30N 47°33' W 052°42'0 0.0
2019-Jul-30 23:00N 47°33' W 052°42'0 0.0
2019-Jul-30 22:21N 47°33' W 052°42'0 0.0
2019-Jul-30 21:54N 47°33' W 052°42'0 0.0
2019-Jul-30 21:30N 47°33' W 052°42'0 0.0
2019-Jul-30 21:00N 47°33' W 052°42'0 0.0
2019-Jul-30 18:24N 47°33' W 052°42'0 0.0
2019-Jul-30 17:18N 47°33' W 052°42'0 0.0
2019-Jul-30 16:48N 47°33' W 052°42'0 0.0
2019-Jul-30 16:18N 47°33' W 052°42'0 0.0
2019-Jul-30 16:00N 47°33' W 052°42'0 0.0
2019-Jul-30 15:30N 47°33' W 052°42'0 0.0
2019-Jul-30 14:00N 47°33' W 052°42'0 0.0
2019-Jul-30 13:30N 47°33' W 052°42'0 0.0
2019-Jul-30 12:57N 47°33' W 052°42'0 0.0
2019-Jul-30 12:30N 47°33' W 052°42'0 0.0
2019-Jul-30 12:00N 47°33' W 052°42'0 0.0
2019-Jul-30 11:24N 47°33' W 052°42'0 0.0
2019-Jul-30 10:54N 47°33' W 052°42'0 0.0
2019-Jul-30 10:30N 47°33' W 052°42'0 0.0
2019-Jul-30 10:00N 47°33' W 052°42'0 0.0
2019-Jul-30 09:30N 47°33' W 052°42'0 0.0
2019-Jul-30 08:48N 47°33' W 052°42'0 0.0
2019-Jul-30 08:30N 47°33' W 052°42'0 0.0
2019-Jul-30 07:54N 47°33' W 052°42'0 0.0
2019-Jul-30 07:30N 47°33' W 052°42'0 0.0
2019-Jul-30 07:00N 47°33' W 052°42'0 0.0
2019-Jul-30 06:30N 47°33' W 052°42'0 0.0
2019-Jul-30 06:00N 47°33' W 052°42'0 0.0
2019-Jul-30 05:30N 47°33' W 052°42'0 0.0
2019-Jul-30 05:00N 47°33' W 052°42'0 0.0
2019-Jul-30 04:30N 47°33' W 052°42'0 0.0
2019-Jul-30 04:00N 47°33' W 052°42'0 0.0
2019-Jul-30 03:30N 47°33' W 052°42'0 0.0
2019-Jul-30 03:00N 47°33' W 052°42'0 0.0
2019-Jul-30 02:30N 47°33' W 052°42'0 0.0
2019-Jul-30 02:00N 47°33' W 052°42'0 0.0
2019-Jul-30 01:30N 47°33' W 052°42'0 0.0
2019-Jul-30 01:00N 47°33' W 052°42'0 0.0
2019-Jul-30 00:30N 47°33' W 052°42'0 0.0
2019-Jul-30 00:00N 47°33' W 052°42'0 0.0
2019-Jul-29 23:30N 47°33' W 052°42'0 0.0
2019-Jul-29 22:54N 47°33' W 052°42'0 0.0
2019-Jul-29 22:30N 47°33' W 052°42'0 0.0
2019-Jul-29 22:00N 47°33' W 052°42'0 0.0
2019-Jul-29 21:30N 47°33' W 052°42'0 0.0
2019-Jul-29 21:00N 47°33' W 052°42'0 0.0
2019-Jul-29 19:54N 47°33' W 052°42'0 0.0
2019-Jul-29 16:42N 47°33' W 052°42'0 0.0
2019-Jul-29 15:15N 47°33' W 052°42'0 0.0
2019-Jul-29 14:57N 47°33' W 052°42'0 0.0
2019-Jul-29 14:30N 47°33' W 052°42'0 0.0
2019-Jul-29 13:51N 47°33' W 052°42'0 0.0
2019-Jul-29 13:24N 47°33' W 052°42'0 0.0
2019-Jul-29 12:57N 47°33' W 052°42'0 0.0
2019-Jul-29 12:30N 47°33' W 052°42'0 0.0
2019-Jul-29 12:00N 47°33' W 052°42'0 0.0
2019-Jul-29 11:27N 47°33' W 052°42'0 0.0
2019-Jul-29 10:57N 47°33' W 052°42'0 0.0
2019-Jul-29 10:30N 47°33' W 052°42'0 0.0
2019-Jul-29 10:00N 47°33' W 052°42'0 0.0
2019-Jul-29 09:30N 47°33' W 052°42'0 0.0
2019-Jul-29 09:00N 47°33' W 052°42'0 0.0
2019-Jul-29 08:30N 47°33' W 052°42'0 0.0
2019-Jul-29 08:00N 47°33' W 052°42'0 0.0
2019-Jul-29 07:30N 47°33' W 052°42'0 0.0
2019-Jul-29 06:54N 47°33' W 052°42'0 0.0
2019-Jul-29 06:30N 47°33' W 052°42'0 0.0
2019-Jul-29 05:54N 47°33' W 052°42'0 0.0
2019-Jul-29 05:30N 47°33' W 052°42'0 0.0
2019-Jul-29 05:00N 47°33' W 052°42'0 0.0
2019-Jul-29 04:24N 47°33' W 052°42'0 0.0
2019-Jul-29 03:54N 47°33' W 052°42'0 0.0
2019-Jul-29 03:30N 47°33' W 052°42'0 0.0
2019-Jul-29 03:00N 47°33' W 052°42'0 0.0
2019-Jul-29 02:00N 47°33' W 052°42'0 0.0
2019-Jul-29 01:30N 47°33' W 052°42'0 0.0
2019-Jul-29 01:00N 47°33' W 052°42'0 0.0
2019-Jul-29 00:30N 47°33' W 052°42'0 0.0
2019-Jul-29 00:00N 47°33' W 052°42'0 0.0
2019-Jul-28 23:24N 47°33' W 052°42'0 0.0
2019-Jul-28 23:00N 47°33' W 052°42'0 0.0
2019-Jul-28 22:30N 47°33' W 052°42'0 0.0
2019-Jul-28 21:54N 47°33' W 052°42'0 0.0
2019-Jul-28 21:30N 47°33' W 052°42'0 0.0
2019-Jul-28 21:00N 47°33' W 052°42'0 0.0
2019-Jul-28 20:30N 47°33' W 052°42'0 0.0
2019-Jul-28 20:00N 47°33' W 052°42'0 0.0
2019-Jul-28 18:42N 47°33' W 052°42'0 0.0
2019-Jul-28 18:30N 47°33' W 052°42'0 0.0
2019-Jul-28 18:00N 47°33' W 052°42'0 0.0
2019-Jul-28 17:24N 47°33' W 052°42'0 0.0
2019-Jul-28 17:00N 47°33' W 052°42'0 0.0
2019-Jul-28 16:30N 47°33' W 052°42'0 0.0
2019-Jul-28 16:00N 47°33' W 052°42'0 0.0
2019-Jul-28 15:30N 47°33' W 052°42'0 0.0
2019-Jul-28 15:00N 47°33' W 052°42'0 0.0
2019-Jul-28 14:30N 47°33' W 052°42'0 0.0
2019-Jul-28 14:00N 47°33' W 052°42'0 0.0
2019-Jul-28 13:30N 47°33' W 052°42'0 0.0
2019-Jul-28 13:00N 47°33' W 052°42'0 0.0
2019-Jul-28 12:30N 47°33' W 052°42'0 0.0
2019-Jul-28 11:54N 47°33' W 052°42'0 0.0
2019-Jul-28 11:30N 47°33' W 052°42'0 0.0
2019-Jul-28 11:00N 47°33' W 052°42'0 0.0
2019-Jul-28 10:30N 47°33' W 052°42'0 0.0
2019-Jul-28 10:00N 47°33' W 052°42'0 0.0
2019-Jul-28 09:27N 47°33' W 052°42'0 0.0
2019-Jul-28 08:54N 47°33' W 052°42'0 0.0
2019-Jul-28 08:21N 47°33' W 052°42'0 0.0
2019-Jul-28 07:54N 47°33' W 052°42'0 0.0
2019-Jul-28 07:30N 47°33' W 052°42'0 0.0
2019-Jul-28 07:00N 47°33' W 052°42'0 0.0
2019-Jul-28 06:30N 47°33' W 052°42'0 0.0
2019-Jul-28 06:00N 47°33' W 052°42'0 0.0
2019-Jul-28 05:30N 47°33' W 052°42'0 0.0
2019-Jul-28 05:00N 47°33' W 052°42'0 0.0
2019-Jul-28 04:30N 47°33' W 052°42'0 0.0
2019-Jul-28 03:57N 47°33' W 052°42'0 0.0
2019-Jul-28 03:27N 47°33' W 052°42'0 0.0
2019-Jul-28 02:51N 47°33' W 052°42'0 0.0
2019-Jul-28 01:54N 47°33' W 052°42'0 0.0
2019-Jul-28 01:30N 47°33' W 052°42'0 0.0
2019-Jul-28 01:00N 47°33' W 052°42'0 0.0
2019-Jul-28 00:30N 47°33' W 052°42'0 0.0
2019-Jul-27 23:57N 47°33' W 052°42'0 0.0
2019-Jul-27 23:27N 47°33' W 052°42'0 0.0
2019-Jul-27 23:00N 47°33' W 052°42'0 0.0
2019-Jul-27 22:18N 47°33' W 052°42'0 0.0
2019-Jul-27 22:00N 47°33' W 052°42'0 0.0
2019-Jul-27 21:24N 47°33' W 052°42'0 0.0
2019-Jul-27 20:42N 47°33' W 052°42'0 0.0
2019-Jul-27 20:30N 47°33' W 052°42'0 0.0
2019-Jul-27 20:00N 47°33' W 052°42'0 0.0
2019-Jul-27 19:30N 47°33' W 052°42'0 0.0
2019-Jul-27 19:00N 47°33' W 052°42'0 0.0
2019-Jul-27 18:30N 47°33' W 052°42'0 0.0
2019-Jul-27 18:00N 47°33' W 052°42'0 0.0
2019-Jul-27 17:30N 47°33' W 052°42'0 0.0
2019-Jul-27 17:00N 47°33' W 052°42'0 0.0
2019-Jul-27 16:30N 47°33' W 052°42'0 0.0
2019-Jul-27 16:00N 47°33' W 052°42'0 0.0
2019-Jul-27 15:30N 47°33' W 052°42'0 0.0
2019-Jul-27 15:00N 47°33' W 052°42'0 0.0
2019-Jul-27 14:30N 47°33' W 052°42'0 0.0
2019-Jul-27 13:51N 47°33' W 052°42'0 0.0
2019-Jul-27 13:30N 47°33' W 052°42'0 0.0
2019-Jul-27 13:00N 47°33' W 052°42'0 0.0
2019-Jul-27 12:30N 47°33' W 052°42'0 0.0
2019-Jul-27 12:00N 47°33' W 052°42'0 0.0
2019-Jul-27 11:18N 47°33' W 052°42'0 0.0
2019-Jul-27 11:00N 47°33' W 052°42'0 0.0
2019-Jul-27 10:21N 47°33' W 052°42'0 0.0
2019-Jul-27 10:00N 47°33' W 052°42'0 0.0
2019-Jul-27 09:24N 47°33' W 052°42'0 0.0
2019-Jul-27 09:00N 47°33' W 052°42'0 0.0
2019-Jul-27 08:30N 47°33' W 052°42'0 0.0
2019-Jul-27 08:00N 47°33' W 052°42'0 0.0
2019-Jul-27 07:30N 47°33' W 052°42'0 0.0
2019-Jul-27 07:00N 47°33' W 052°42'0 0.0
2019-Jul-27 06:30N 47°33' W 052°42'0 0.0
2019-Jul-27 06:00N 47°33' W 052°42'0 0.0
2019-Jul-27 05:30N 47°33' W 052°42'0 0.0
2019-Jul-27 04:57N 47°33' W 052°42'0 0.0
2019-Jul-27 04:30N 47°33' W 052°42'0 0.0
2019-Jul-27 04:00N 47°33' W 052°42'0 0.0
2019-Jul-27 03:30N 47°33' W 052°42'0 0.0
2019-Jul-27 02:57N 47°33' W 052°42'0 0.0
2019-Jul-27 01:54N 47°33' W 052°42'0 0.0
2019-Jul-27 01:30N 47°33' W 052°42'0 0.0
2019-Jul-27 01:00N 47°33' W 052°42'0 0.0
2019-Jul-27 00:30N 47°33' W 052°42'0 0.0
2019-Jul-27 00:00N 47°33' W 052°42'0 0.0
2019-Jul-26 23:27N 47°33' W 052°42'0 0.0
2019-Jul-26 22:54N 47°33' W 052°42'0 0.0
2019-Jul-26 22:24N 47°33' W 052°42'0 0.0
2019-Jul-26 22:00N 47°33' W 052°42'0 0.0
2019-Jul-26 21:30N 47°33' W 052°42'0 0.0
2019-Jul-26 21:00N 47°33' W 052°42'0 0.0
2019-Jul-26 20:27N 47°33' W 052°42'0 0.0
2019-Jul-26 19:57N 47°33' W 052°42'0 0.0
2019-Jul-26 19:30N 47°33' W 052°42'0 0.0
2019-Jul-26 18:45N 47°33' W 052°42'0 0.0
2019-Jul-26 18:21N 47°33' W 052°42'0 0.0
2019-Jul-26 17:51N 47°33' W 052°42'0 0.0
2019-Jul-26 17:30N 47°33' W 052°42'0 0.0
2019-Jul-26 16:54N 47°33' W 052°42'0 0.0
2019-Jul-26 16:30N 47°33' W 052°42'0 0.0
2019-Jul-26 16:00N 47°33' W 052°42'0 0.0
2019-Jul-26 15:27N 47°33' W 052°42'0 0.0
2019-Jul-26 14:54N 47°33' W 052°42'0 0.0
2019-Jul-26 14:27N 47°33' W 052°42'0 0.0
2019-Jul-26 14:00N 47°33' W 052°42'0 0.0
2019-Jul-26 13:27N 47°33' W 052°42'0 0.0
2019-Jul-26 13:00N 47°33' W 052°42'0 0.0
2019-Jul-26 12:30N 47°33' W 052°42'0 0.0
2019-Jul-26 12:00N 47°33' W 052°42'0 0.0
2019-Jul-26 11:27N 47°33' W 052°42'0 0.0
2019-Jul-26 11:00N 47°33' W 052°42'0 0.0
2019-Jul-26 10:30N 47°33' W 052°42'0 0.0
2019-Jul-26 10:00N 47°33' W 052°42'0 0.0
2019-Jul-26 09:24N 47°33' W 052°42'0 0.0
2019-Jul-26 08:57N 47°33' W 052°42'0 0.0
2019-Jul-26 08:30N 47°33' W 052°42'0 0.0
2019-Jul-26 08:00N 47°33' W 052°42'0 0.0
2019-Jul-26 07:30N 47°33' W 052°42'0 0.0
2019-Jul-26 06:57N 47°33' W 052°42'0 0.0
2019-Jul-26 06:30N 47°33' W 052°42'0 0.0
2019-Jul-26 06:00N 47°33' W 052°42'0 0.0
2019-Jul-26 05:30N 47°33' W 052°42'0 0.0
2019-Jul-26 05:00N 47°33' W 052°42'  

Dump ship's entire track history